sensor_id;sensor_type;location;lat;lon;timestamp;P1;durP1;ratioP1;P2;durP2;ratioP2
20482;SDS011;10400;53.198;6.592;2022-08-01T00:02:10;6.80;;;3.30;;
20482;SDS011;10400;53.198;6.592;2022-08-01T00:04:36;5.45;;;3.13;;
20482;SDS011;10400;53.198;6.592;2022-08-01T00:07:01;7.28;;;3.85;;
20482;SDS011;10400;53.198;6.592;2022-08-01T00:09:27;3.78;;;3.00;;
20482;SDS011;10400;53.198;6.592;2022-08-01T00:11:53;4.32;;;3.30;;
20482;SDS011;10400;53.198;6.592;2022-08-01T00:14:18;4.13;;;3.45;;
20482;SDS011;10400;53.198;6.592;2022-08-01T00:16:44;7.57;;;3.88;;
20482;SDS011;10400;53.198;6.592;2022-08-01T00:19:10;6.40;;;3.42;;
20482;SDS011;10400;53.198;6.592;2022-08-01T00:21:35;5.60;;;3.30;;
20482;SDS011;10400;53.198;6.592;2022-08-01T00:24:01;5.18;;;3.60;;
20482;SDS011;10400;53.198;6.592;2022-08-01T00:26:27;5.32;;;3.80;;
20482;SDS011;10400;53.198;6.592;2022-08-01T00:28:52;3.97;;;3.08;;
20482;SDS011;10400;53.198;6.592;2022-08-01T00:31:18;3.88;;;3.10;;
20482;SDS011;10400;53.198;6.592;2022-08-01T00:33:44;6.43;;;3.13;;
20482;SDS011;10400;53.198;6.592;2022-08-01T00:36:09;6.70;;;3.15;;
20482;SDS011;10400;53.198;6.592;2022-08-01T00:38:35;4.57;;;3.30;;
20482;SDS011;10400;53.198;6.592;2022-08-01T00:41:00;5.72;;;3.30;;
20482;SDS011;10400;53.198;6.592;2022-08-01T00:43:26;4.57;;;3.22;;
20482;SDS011;10400;53.198;6.592;2022-08-01T00:45:52;4.65;;;3.80;;
20482;SDS011;10400;53.198;6.592;2022-08-01T00:48:17;4.53;;;3.40;;
20482;SDS011;10400;53.198;6.592;2022-08-01T00:50:43;5.15;;;3.63;;
20482;SDS011;10400;53.198;6.592;2022-08-01T00:53:09;6.55;;;4.05;;
20482;SDS011;10400;53.198;6.592;2022-08-01T00:55:35;8.18;;;3.80;;
20482;SDS011;10400;53.198;6.592;2022-08-01T00:58:00;5.78;;;3.97;;
20482;SDS011;10400;53.198;6.592;2022-08-01T01:00:26;6.55;;;4.07;;
20482;SDS011;10400;53.198;6.592;2022-08-01T01:02:52;6.78;;;3.42;;
20482;SDS011;10400;53.198;6.592;2022-08-01T01:05:18;5.65;;;3.90;;
20482;SDS011;10400;53.198;6.592;2022-08-01T01:10:16;6.68;;;3.70;;
20482;SDS011;10400;53.198;6.592;2022-08-01T01:18:09;4.95;;;2.83;;
20482;SDS011;10400;53.198;6.592;2022-08-01T01:20:45;4.20;;;3.08;;
20482;SDS011;10400;53.198;6.592;2022-08-01T01:26:28;5.53;;;2.40;;
20482;SDS011;10400;53.198;6.592;2022-08-01T01:29:16;6.10;;;2.22;;
20482;SDS011;10400;53.198;6.592;2022-08-01T01:31:54;9.65;;;2.78;;
20482;SDS011;10400;53.198;6.592;2022-08-01T01:34:23;4.95;;;2.40;;
20482;SDS011;10400;53.198;6.592;2022-08-01T01:36:51;5.82;;;2.38;;
20482;SDS011;10400;53.198;6.592;2022-08-01T01:39:20;6.45;;;2.90;;
20482;SDS011;10400;53.198;6.592;2022-08-01T01:41:47;10.48;;;2.85;;
20482;SDS011;10400;53.198;6.592;2022-08-01T01:44:14;6.70;;;3.03;;
20482;SDS011;10400;53.198;6.592;2022-08-01T01:46:41;6.20;;;2.22;;
20482;SDS011;10400;53.198;6.592;2022-08-01T01:49:07;10.15;;;2.95;;
20482;SDS011;10400;53.198;6.592;2022-08-01T01:51:35;12.05;;;3.10;;
20482;SDS011;10400;53.198;6.592;2022-08-01T01:54:01;5.47;;;2.30;;
20482;SDS011;10400;53.198;6.592;2022-08-01T01:56:29;12.05;;;2.55;;
20482;SDS011;10400;53.198;6.592;2022-08-01T01:58:57;6.35;;;2.22;;
20482;SDS011;10400;53.198;6.592;2022-08-01T02:01:28;10.23;;;2.65;;
20482;SDS011;10400;53.198;6.592;2022-08-01T02:03:56;9.95;;;2.53;;
20482;SDS011;10400;53.198;6.592;2022-08-01T02:06:23;4.13;;;1.80;;
20482;SDS011;10400;53.198;6.592;2022-08-01T02:08:51;6.85;;;2.28;;
20482;SDS011;10400;53.198;6.592;2022-08-01T02:11:19;8.45;;;2.25;;
20482;SDS011;10400;53.198;6.592;2022-08-01T02:14:01;13.05;;;2.25;;
20482;SDS011;10400;53.198;6.592;2022-08-01T02:16:29;6.43;;;2.00;;
20482;SDS011;10400;53.198;6.592;2022-08-01T02:18:59;7.30;;;2.08;;
20482;SDS011;10400;53.198;6.592;2022-08-01T02:21:26;5.03;;;1.60;;
20482;SDS011;10400;53.198;6.592;2022-08-01T02:23:55;9.15;;;2.25;;
20482;SDS011;10400;53.198;6.592;2022-08-01T02:26:27;8.63;;;1.90;;
20482;SDS011;10400;53.198;6.592;2022-08-01T02:28:56;8.73;;;1.88;;
20482;SDS011;10400;53.198;6.592;2022-08-01T02:31:24;7.20;;;1.85;;
20482;SDS011;10400;53.198;6.592;2022-08-01T02:33:54;7.63;;;1.90;;
20482;SDS011;10400;53.198;6.592;2022-08-01T02:36:27;9.75;;;2.00;;
20482;SDS011;10400;53.198;6.592;2022-08-01T02:38:54;9.45;;;2.20;;
20482;SDS011;10400;53.198;6.592;2022-08-01T02:41:22;7.80;;;1.95;;
20482;SDS011;10400;53.198;6.592;2022-08-01T02:43:50;11.15;;;3.17;;
20482;SDS011;10400;53.198;6.592;2022-08-01T02:46:22;11.07;;;2.58;;
20482;SDS011;10400;53.198;6.592;2022-08-01T02:48:52;7.85;;;2.55;;
20482;SDS011;10400;53.198;6.592;2022-08-01T02:51:21;11.02;;;3.08;;
20482;SDS011;10400;53.198;6.592;2022-08-01T02:53:50;11.95;;;2.95;;
20482;SDS011;10400;53.198;6.592;2022-08-01T02:56:18;8.15;;;2.75;;
20482;SDS011;10400;53.198;6.592;2022-08-01T02:58:46;12.27;;;3.13;;
20482;SDS011;10400;53.198;6.592;2022-08-01T03:01:14;15.63;;;3.65;;
20482;SDS011;10400;53.198;6.592;2022-08-01T03:03:41;10.95;;;3.03;;
20482;SDS011;10400;53.198;6.592;2022-08-01T03:06:07;8.35;;;2.80;;
20482;SDS011;10400;53.198;6.592;2022-08-01T03:08:34;13.88;;;2.67;;
20482;SDS011;10400;53.198;6.592;2022-08-01T03:11:01;13.55;;;2.92;;
20482;SDS011;10400;53.198;6.592;2022-08-01T03:13:28;14.13;;;2.95;;
20482;SDS011;10400;53.198;6.592;2022-08-01T03:15:56;12.85;;;3.00;;
20482;SDS011;10400;53.198;6.592;2022-08-01T03:18:23;12.55;;;2.90;;
20482;SDS011;10400;53.198;6.592;2022-08-01T03:20:51;9.50;;;3.42;;
20482;SDS011;10400;53.198;6.592;2022-08-01T03:23:19;11.32;;;3.17;;
20482;SDS011;10400;53.198;6.592;2022-08-01T03:25:47;11.63;;;3.17;;
20482;SDS011;10400;53.198;6.592;2022-08-01T03:28:15;10.32;;;3.75;;
20482;SDS011;10400;53.198;6.592;2022-08-01T03:30:42;11.15;;;3.35;;
20482;SDS011;10400;53.198;6.592;2022-08-01T03:33:09;11.35;;;3.15;;
20482;SDS011;10400;53.198;6.592;2022-08-01T03:35:48;9.00;;;2.88;;
20482;SDS011;10400;53.198;6.592;2022-08-01T03:38:19;11.77;;;2.88;;
20482;SDS011;10400;53.198;6.592;2022-08-01T03:40:49;7.43;;;2.60;;
20482;SDS011;10400;53.198;6.592;2022-08-01T03:43:56;8.32;;;2.47;;
20482;SDS011;10400;53.198;6.592;2022-08-01T03:46:22;10.18;;;3.35;;
20482;SDS011;10400;53.198;6.592;2022-08-01T03:48:54;13.25;;;2.80;;
20482;SDS011;10400;53.198;6.592;2022-08-01T03:51:23;8.23;;;2.63;;
20482;SDS011;10400;53.198;6.592;2022-08-01T03:53:50;16.83;;;3.35;;
20482;SDS011;10400;53.198;6.592;2022-08-01T03:56:17;10.88;;;2.95;;
20482;SDS011;10400;53.198;6.592;2022-08-01T03:58:44;14.00;;;2.92;;
20482;SDS011;10400;53.198;6.592;2022-08-01T04:01:11;12.95;;;3.38;;
20482;SDS011;10400;53.198;6.592;2022-08-01T04:03:37;13.77;;;3.53;;
20482;SDS011;10400;53.198;6.592;2022-08-01T04:06:07;8.68;;;3.30;;
20482;SDS011;10400;53.198;6.592;2022-08-01T04:08:35;15.63;;;3.10;;
20482;SDS011;10400;53.198;6.592;2022-08-01T04:11:05;11.63;;;3.33;;
20482;SDS011;10400;53.198;6.592;2022-08-01T04:13:32;12.95;;;2.97;;
20482;SDS011;10400;53.198;6.592;2022-08-01T04:15:58;10.32;;;2.63;;
20482;SDS011;10400;53.198;6.592;2022-08-01T04:18:24;7.50;;;2.85;;
20482;SDS011;10400;53.198;6.592;2022-08-01T04:20:49;10.23;;;2.60;;
20482;SDS011;10400;53.198;6.592;2022-08-01T04:23:15;11.85;;;3.40;;
20482;SDS011;10400;53.198;6.592;2022-08-01T04:25:43;11.43;;;3.10;;
20482;SDS011;10400;53.198;6.592;2022-08-01T04:28:12;11.32;;;2.70;;
20482;SDS011;10400;53.198;6.592;2022-08-01T04:30:41;15.73;;;2.60;;
20482;SDS011;10400;53.198;6.592;2022-08-01T04:33:09;9.82;;;2.50;;
20482;SDS011;10400;53.198;6.592;2022-08-01T04:35:41;11.88;;;2.88;;
20482;SDS011;10400;53.198;6.592;2022-08-01T04:38:10;18.20;;;2.83;;
20482;SDS011;10400;53.198;6.592;2022-08-01T04:40:39;9.98;;;2.55;;
20482;SDS011;10400;53.198;6.592;2022-08-01T04:43:06;12.50;;;3.08;;
20482;SDS011;10400;53.198;6.592;2022-08-01T04:45:32;12.20;;;2.80;;
20482;SDS011;10400;53.198;6.592;2022-08-01T04:47:59;14.85;;;2.90;;
20482;SDS011;10400;53.198;6.592;2022-08-01T04:50:25;10.95;;;2.33;;
20482;SDS011;10400;53.198;6.592;2022-08-01T04:52:51;14.13;;;3.28;;
20482;SDS011;10400;53.198;6.592;2022-08-01T04:55:17;16.27;;;3.00;;
20482;SDS011;10400;53.198;6.592;2022-08-01T04:57:43;16.35;;;3.05;;
20482;SDS011;10400;53.198;6.592;2022-08-01T05:00:11;17.55;;;3.03;;
20482;SDS011;10400;53.198;6.592;2022-08-01T05:02:37;13.93;;;3.22;;
20482;SDS011;10400;53.198;6.592;2022-08-01T05:05:03;12.70;;;2.92;;
20482;SDS011;10400;53.198;6.592;2022-08-01T05:07:30;10.40;;;2.63;;
20482;SDS011;10400;53.198;6.592;2022-08-01T05:09:56;11.73;;;2.97;;
20482;SDS011;10400;53.198;6.592;2022-08-01T05:12:22;22.27;;;3.05;;
20482;SDS011;10400;53.198;6.592;2022-08-01T05:14:48;11.80;;;2.83;;
20482;SDS011;10400;53.198;6.592;2022-08-01T05:17:13;13.68;;;3.40;;
20482;SDS011;10400;53.198;6.592;2022-08-01T05:19:39;15.88;;;2.65;;
20482;SDS011;10400;53.198;6.592;2022-08-01T05:22:07;13.85;;;3.72;;
20482;SDS011;10400;53.198;6.592;2022-08-01T05:24:34;14.60;;;2.55;;
20482;SDS011;10400;53.198;6.592;2022-08-01T05:27:02;23.75;;;4.38;;
20482;SDS011;10400;53.198;6.592;2022-08-01T05:29:28;21.38;;;3.20;;
20482;SDS011;10400;53.198;6.592;2022-08-01T05:31:54;25.25;;;3.60;;
20482;SDS011;10400;53.198;6.592;2022-08-01T05:34:20;22.13;;;3.10;;
20482;SDS011;10400;53.198;6.592;2022-08-01T05:36:46;19.80;;;3.00;;
20482;SDS011;10400;53.198;6.592;2022-08-01T05:39:12;16.02;;;3.20;;
20482;SDS011;10400;53.198;6.592;2022-08-01T05:41:38;15.45;;;2.67;;
20482;SDS011;10400;53.198;6.592;2022-08-01T05:44:04;14.40;;;3.25;;
20482;SDS011;10400;53.198;6.592;2022-08-01T05:46:30;19.75;;;3.40;;
20482;SDS011;10400;53.198;6.592;2022-08-01T05:48:56;20.60;;;3.03;;
20482;SDS011;10400;53.198;6.592;2022-08-01T05:51:25;15.35;;;3.22;;
20482;SDS011;10400;53.198;6.592;2022-08-01T05:53:51;22.15;;;3.22;;
20482;SDS011;10400;53.198;6.592;2022-08-01T05:56:18;13.48;;;2.85;;
20482;SDS011;10400;53.198;6.592;2022-08-01T05:58:44;21.90;;;3.92;;
20482;SDS011;10400;53.198;6.592;2022-08-01T06:01:09;18.13;;;3.03;;
20482;SDS011;10400;53.198;6.592;2022-08-01T06:03:35;14.23;;;3.10;;
20482;SDS011;10400;53.198;6.592;2022-08-01T06:06:01;19.27;;;2.88;;
20482;SDS011;10400;53.198;6.592;2022-08-01T06:08:27;18.67;;;3.03;;
20482;SDS011;10400;53.198;6.592;2022-08-01T06:10:53;18.40;;;3.42;;
20482;SDS011;10400;53.198;6.592;2022-08-01T06:13:19;19.10;;;3.08;;
20482;SDS011;10400;53.198;6.592;2022-08-01T06:15:45;14.98;;;3.00;;
20482;SDS011;10400;53.198;6.592;2022-08-01T06:18:11;14.80;;;3.10;;
20482;SDS011;10400;53.198;6.592;2022-08-01T06:20:37;18.40;;;3.40;;
20482;SDS011;10400;53.198;6.592;2022-08-01T06:23:03;18.80;;;3.30;;
20482;SDS011;10400;53.198;6.592;2022-08-01T06:25:29;14.05;;;2.90;;
20482;SDS011;10400;53.198;6.592;2022-08-01T06:27:55;16.33;;;3.35;;
20482;SDS011;10400;53.198;6.592;2022-08-01T06:30:21;14.43;;;3.13;;
20482;SDS011;10400;53.198;6.592;2022-08-01T06:32:47;16.23;;;3.30;;
20482;SDS011;10400;53.198;6.592;2022-08-01T06:35:13;17.15;;;3.03;;
20482;SDS011;10400;53.198;6.592;2022-08-01T06:37:40;13.48;;;2.72;;
20482;SDS011;10400;53.198;6.592;2022-08-01T06:40:06;12.05;;;2.78;;
20482;SDS011;10400;53.198;6.592;2022-08-01T06:42:34;13.95;;;2.70;;
20482;SDS011;10400;53.198;6.592;2022-08-01T06:45:04;14.00;;;2.63;;
20482;SDS011;10400;53.198;6.592;2022-08-01T06:47:29;14.02;;;2.75;;
20482;SDS011;10400;53.198;6.592;2022-08-01T06:49:55;21.17;;;3.15;;
20482;SDS011;10400;53.198;6.592;2022-08-01T06:52:21;17.83;;;2.88;;
20482;SDS011;10400;53.198;6.592;2022-08-01T06:54:46;12.57;;;2.83;;
20482;SDS011;10400;53.198;6.592;2022-08-01T06:57:12;18.17;;;2.88;;
20482;SDS011;10400;53.198;6.592;2022-08-01T06:59:38;14.15;;;2.47;;
20482;SDS011;10400;53.198;6.592;2022-08-01T07:02:03;16.10;;;2.40;;
20482;SDS011;10400;53.198;6.592;2022-08-01T07:04:29;14.43;;;2.53;;
20482;SDS011;10400;53.198;6.592;2022-08-01T07:06:55;24.85;;;3.05;;
20482;SDS011;10400;53.198;6.592;2022-08-01T07:09:21;12.48;;;2.63;;
20482;SDS011;10400;53.198;6.592;2022-08-01T07:11:47;8.93;;;2.55;;
20482;SDS011;10400;53.198;6.592;2022-08-01T07:14:12;8.98;;;2.22;;
20482;SDS011;10400;53.198;6.592;2022-08-01T07:16:38;12.48;;;2.22;;
20482;SDS011;10400;53.198;6.592;2022-08-01T07:19:04;11.68;;;2.50;;
20482;SDS011;10400;53.198;6.592;2022-08-01T07:21:29;12.73;;;2.75;;
20482;SDS011;10400;53.198;6.592;2022-08-01T07:23:55;17.35;;;3.63;;
20482;SDS011;10400;53.198;6.592;2022-08-01T07:26:21;12.18;;;2.50;;
20482;SDS011;10400;53.198;6.592;2022-08-01T07:28:46;15.57;;;2.63;;
20482;SDS011;10400;53.198;6.592;2022-08-01T07:31:12;14.35;;;2.45;;
20482;SDS011;10400;53.198;6.592;2022-08-01T07:33:37;15.73;;;2.85;;
20482;SDS011;10400;53.198;6.592;2022-08-01T07:36:03;18.17;;;2.70;;
20482;SDS011;10400;53.198;6.592;2022-08-01T07:38:29;17.77;;;2.53;;
20482;SDS011;10400;53.198;6.592;2022-08-01T07:40:54;9.68;;;2.70;;
20482;SDS011;10400;53.198;6.592;2022-08-01T07:43:20;12.35;;;2.20;;
20482;SDS011;10400;53.198;6.592;2022-08-01T07:45:46;13.77;;;2.90;;
20482;SDS011;10400;53.198;6.592;2022-08-01T07:48:11;11.55;;;2.60;;
20482;SDS011;10400;53.198;6.592;2022-08-01T07:50:37;16.45;;;2.25;;
20482;SDS011;10400;53.198;6.592;2022-08-01T07:53:03;13.25;;;2.22;;
20482;SDS011;10400;53.198;6.592;2022-08-01T07:55:29;15.95;;;2.95;;
20482;SDS011;10400;53.198;6.592;2022-08-01T07:57:55;12.88;;;1.95;;
20482;SDS011;10400;53.198;6.592;2022-08-01T08:00:20;19.10;;;2.33;;
20482;SDS011;10400;53.198;6.592;2022-08-01T08:02:46;10.85;;;2.15;;
20482;SDS011;10400;53.198;6.592;2022-08-01T08:05:12;11.75;;;2.28;;
20482;SDS011;10400;53.198;6.592;2022-08-01T08:07:38;11.13;;;1.90;;
20482;SDS011;10400;53.198;6.592;2022-08-01T08:10:04;14.10;;;2.25;;
20482;SDS011;10400;53.198;6.592;2022-08-01T08:12:30;13.48;;;2.60;;
20482;SDS011;10400;53.198;6.592;2022-08-01T08:14:56;17.25;;;2.38;;
20482;SDS011;10400;53.198;6.592;2022-08-01T08:17:25;10.27;;;2.10;;
20482;SDS011;10400;53.198;6.592;2022-08-01T08:19:52;11.00;;;2.30;;
20482;SDS011;10400;53.198;6.592;2022-08-01T08:22:18;12.90;;;2.05;;
20482;SDS011;10400;53.198;6.592;2022-08-01T08:24:43;18.00;;;2.10;;
20482;SDS011;10400;53.198;6.592;2022-08-01T08:27:09;12.10;;;2.00;;
20482;SDS011;10400;53.198;6.592;2022-08-01T08:29:36;9.48;;;1.92;;
20482;SDS011;10400;53.198;6.592;2022-08-01T08:32:02;10.23;;;1.77;;
20482;SDS011;10400;53.198;6.592;2022-08-01T08:34:28;10.98;;;2.45;;
20482;SDS011;10400;53.198;6.592;2022-08-01T08:36:54;13.25;;;2.67;;
20482;SDS011;10400;53.198;6.592;2022-08-01T08:39:21;10.68;;;1.98;;
20482;SDS011;10400;53.198;6.592;2022-08-01T08:41:47;14.30;;;2.17;;
20482;SDS011;10400;53.198;6.592;2022-08-01T08:44:13;11.18;;;2.00;;
20482;SDS011;10400;53.198;6.592;2022-08-01T08:46:41;10.32;;;2.20;;
20482;SDS011;10400;53.198;6.592;2022-08-01T08:49:08;12.60;;;1.85;;
20482;SDS011;10400;53.198;6.592;2022-08-01T08:51:35;8.93;;;1.95;;
20482;SDS011;10400;53.198;6.592;2022-08-01T08:54:05;10.32;;;2.08;;
20482;SDS011;10400;53.198;6.592;2022-08-01T08:56:32;9.85;;;1.67;;
20482;SDS011;10400;53.198;6.592;2022-08-01T08:59:00;10.70;;;1.88;;
20482;SDS011;10400;53.198;6.592;2022-08-01T09:01:27;12.45;;;2.00;;
20482;SDS011;10400;53.198;6.592;2022-08-01T09:03:52;13.60;;;1.90;;
20482;SDS011;10400;53.198;6.592;2022-08-01T09:06:18;8.98;;;1.50;;
20482;SDS011;10400;53.198;6.592;2022-08-01T09:08:44;16.73;;;2.38;;
20482;SDS011;10400;53.198;6.592;2022-08-01T09:11:11;12.95;;;2.08;;
20482;SDS011;10400;53.198;6.592;2022-08-01T09:13:36;13.23;;;2.20;;
20482;SDS011;10400;53.198;6.592;2022-08-01T09:16:02;12.38;;;2.05;;
20482;SDS011;10400;53.198;6.592;2022-08-01T09:18:37;11.52;;;1.77;;
20482;SDS011;10400;53.198;6.592;2022-08-01T09:23:35;9.35;;;2.10;;
20482;SDS011;10400;53.198;6.592;2022-08-01T09:26:07;12.70;;;1.98;;
20482;SDS011;10400;53.198;6.592;2022-08-01T09:28:34;8.88;;;1.65;;
20482;SDS011;10400;53.198;6.592;2022-08-01T09:31:14;11.50;;;1.70;;
20482;SDS011;10400;53.198;6.592;2022-08-01T09:33:52;8.65;;;1.85;;
20482;SDS011;10400;53.198;6.592;2022-08-01T09:36:24;10.90;;;1.42;;
20482;SDS011;10400;53.198;6.592;2022-08-01T09:39:11;8.73;;;1.40;;
20482;SDS011;10400;53.198;6.592;2022-08-01T09:41:38;8.07;;;1.80;;
20482;SDS011;10400;53.198;6.592;2022-08-01T09:44:04;6.22;;;1.70;;
20482;SDS011;10400;53.198;6.592;2022-08-01T09:46:30;12.50;;;1.33;;
20482;SDS011;10400;53.198;6.592;2022-08-01T09:49:03;11.52;;;1.75;;
20482;SDS011;10400;53.198;6.592;2022-08-01T09:53:58;7.93;;;1.50;;
20482;SDS011;10400;53.198;6.592;2022-08-01T09:56:24;8.98;;;1.70;;
20482;SDS011;10400;53.198;6.592;2022-08-01T09:58:57;11.35;;;1.48;;
20482;SDS011;10400;53.198;6.592;2022-08-01T10:01:24;11.43;;;1.70;;
20482;SDS011;10400;53.198;6.592;2022-08-01T10:04:07;11.90;;;1.88;;
20482;SDS011;10400;53.198;6.592;2022-08-01T10:06:38;14.43;;;2.03;;
20482;SDS011;10400;53.198;6.592;2022-08-01T10:09:07;12.68;;;1.90;;
20482;SDS011;10400;53.198;6.592;2022-08-01T10:11:33;6.00;;;1.65;;
20482;SDS011;10400;53.198;6.592;2022-08-01T10:14:03;9.95;;;1.45;;
20482;SDS011;10400;53.198;6.592;2022-08-01T10:16:30;8.88;;;1.80;;
20482;SDS011;10400;53.198;6.592;2022-08-01T10:18:57;14.75;;;1.92;;
20482;SDS011;10400;53.198;6.592;2022-08-01T10:21:23;9.20;;;1.35;;
20482;SDS011;10400;53.198;6.592;2022-08-01T10:23:51;7.68;;;1.55;;
20482;SDS011;10400;53.198;6.592;2022-08-01T10:26:21;6.75;;;1.38;;
20482;SDS011;10400;53.198;6.592;2022-08-01T10:28:50;8.45;;;1.30;;
20482;SDS011;10400;53.198;6.592;2022-08-01T10:31:17;9.00;;;1.42;;
20482;SDS011;10400;53.198;6.592;2022-08-01T10:33:44;7.53;;;1.38;;
20482;SDS011;10400;53.198;6.592;2022-08-01T10:36:10;9.45;;;1.30;;
20482;SDS011;10400;53.198;6.592;2022-08-01T10:38:36;8.85;;;1.52;;
20482;SDS011;10400;53.198;6.592;2022-08-01T10:41:03;7.32;;;1.40;;
20482;SDS011;10400;53.198;6.592;2022-08-01T10:43:29;6.05;;;1.35;;
20482;SDS011;10400;53.198;6.592;2022-08-01T10:45:55;6.00;;;1.33;;
20482;SDS011;10400;53.198;6.592;2022-08-01T10:48:33;8.13;;;1.58;;
20482;SDS011;10400;53.198;6.592;2022-08-01T10:51:12;8.18;;;1.50;;
20482;SDS011;10400;53.198;6.592;2022-08-01T10:53:50;8.48;;;1.77;;
20482;SDS011;10400;53.198;6.592;2022-08-01T10:56:17;7.82;;;1.85;;
20482;SDS011;10400;53.198;6.592;2022-08-01T10:58:44;5.93;;;1.48;;
20482;SDS011;10400;53.198;6.592;2022-08-01T11:09:05;7.28;;;1.52;;
20482;SDS011;10400;53.198;6.592;2022-08-01T11:12:05;11.07;;;1.77;;
20482;SDS011;10400;53.198;6.592;2022-08-01T11:17:33;9.15;;;1.33;;
20482;SDS011;10400;53.198;6.592;2022-08-01T11:20:11;9.68;;;1.67;;
20482;SDS011;10400;53.198;6.592;2022-08-01T11:26:06;10.15;;;1.48;;
20482;SDS011;10400;53.198;6.592;2022-08-01T11:30:52;10.05;;;1.38;;
20482;SDS011;10400;53.198;6.592;2022-08-01T11:38:39;6.65;;;1.20;;
20482;SDS011;10400;53.198;6.592;2022-08-01T11:43:58;5.80;;;1.30;;
20482;SDS011;10400;53.198;6.592;2022-08-01T11:54:54;6.57;;;1.38;;
20482;SDS011;10400;53.198;6.592;2022-08-01T11:57:21;6.13;;;1.30;;
20482;SDS011;10400;53.198;6.592;2022-08-01T11:59:50;10.65;;;1.52;;
20482;SDS011;10400;53.198;6.592;2022-08-01T12:02:39;8.15;;;1.40;;
20482;SDS011;10400;53.198;6.592;2022-08-01T12:05:07;8.75;;;1.55;;
20482;SDS011;10400;53.198;6.592;2022-08-01T12:07:38;6.80;;;1.10;;
20482;SDS011;10400;53.198;6.592;2022-08-01T12:10:07;8.60;;;1.67;;
20482;SDS011;10400;53.198;6.592;2022-08-01T12:12:44;8.40;;;1.63;;
20482;SDS011;10400;53.198;6.592;2022-08-01T12:15:18;7.80;;;0.80;;
20482;SDS011;10400;53.198;6.592;2022-08-01T12:17:46;6.45;;;1.15;;
20482;SDS011;10400;53.198;6.592;2022-08-01T12:20:18;7.53;;;1.60;;
20482;SDS011;10400;53.198;6.592;2022-08-01T12:22:45;6.38;;;1.10;;
20482;SDS011;10400;53.198;6.592;2022-08-01T12:25:17;8.85;;;1.40;;
20482;SDS011;10400;53.198;6.592;2022-08-01T12:27:44;6.15;;;1.40;;
20482;SDS011;10400;53.198;6.592;2022-08-01T12:30:12;7.22;;;1.20;;
20482;SDS011;10400;53.198;6.592;2022-08-01T12:32:40;6.95;;;1.23;;
20482;SDS011;10400;53.198;6.592;2022-08-01T12:35:11;12.82;;;1.80;;
20482;SDS011;10400;53.198;6.592;2022-08-01T12:37:48;5.70;;;1.20;;
20482;SDS011;10400;53.198;6.592;2022-08-01T12:40:25;5.47;;;1.20;;
20482;SDS011;10400;53.198;6.592;2022-08-01T12:42:59;11.05;;;1.30;;
20482;SDS011;10400;53.198;6.592;2022-08-01T12:45:37;7.72;;;1.48;;
20482;SDS011;10400;53.198;6.592;2022-08-01T12:48:11;9.07;;;1.35;;
20482;SDS011;10400;53.198;6.592;2022-08-01T12:50:42;5.93;;;1.23;;
20482;SDS011;10400;53.198;6.592;2022-08-01T12:53:09;5.63;;;1.05;;
20482;SDS011;10400;53.198;6.592;2022-08-01T12:55:45;4.47;;;1.10;;
20482;SDS011;10400;53.198;6.592;2022-08-01T12:58:12;4.57;;;1.15;;
20482;SDS011;10400;53.198;6.592;2022-08-01T13:00:40;9.18;;;1.40;;
20482;SDS011;10400;53.198;6.592;2022-08-01T13:03:16;6.93;;;1.33;;
20482;SDS011;10400;53.198;6.592;2022-08-01T13:05:44;9.40;;;1.30;;
20482;SDS011;10400;53.198;6.592;2022-08-01T13:08:14;10.40;;;1.50;;
20482;SDS011;10400;53.198;6.592;2022-08-01T13:10:42;6.15;;;1.55;;
20482;SDS011;10400;53.198;6.592;2022-08-01T13:13:08;8.32;;;1.27;;
20482;SDS011;10400;53.198;6.592;2022-08-01T13:15:35;5.78;;;1.10;;
20482;SDS011;10400;53.198;6.592;2022-08-01T13:20:50;8.18;;;1.35;;
20482;SDS011;10400;53.198;6.592;2022-08-01T13:23:39;5.10;;;1.25;;
20482;SDS011;10400;53.198;6.592;2022-08-01T13:26:06;7.07;;;1.20;;
20482;SDS011;10400;53.198;6.592;2022-08-01T13:28:31;5.55;;;1.00;;
20482;SDS011;10400;53.198;6.592;2022-08-01T13:31:06;7.97;;;1.30;;
20482;SDS011;10400;53.198;6.592;2022-08-01T13:33:42;5.72;;;1.33;;
20482;SDS011;10400;53.198;6.592;2022-08-01T13:36:10;5.22;;;1.45;;
20482;SDS011;10400;53.198;6.592;2022-08-01T13:38:37;5.88;;;1.27;;
20482;SDS011;10400;53.198;6.592;2022-08-01T13:41:22;7.72;;;1.23;;
20482;SDS011;10400;53.198;6.592;2022-08-01T13:43:48;5.03;;;1.40;;
20482;SDS011;10400;53.198;6.592;2022-08-01T13:46:14;6.97;;;1.33;;
20482;SDS011;10400;53.198;6.592;2022-08-01T13:48:39;6.20;;;1.35;;
20482;SDS011;10400;53.198;6.592;2022-08-01T13:51:05;7.32;;;1.58;;
20482;SDS011;10400;53.198;6.592;2022-08-01T13:53:31;10.18;;;1.25;;
20482;SDS011;10400;53.198;6.592;2022-08-01T13:55:57;4.20;;;1.10;;
20482;SDS011;10400;53.198;6.592;2022-08-01T13:58:22;5.45;;;1.00;;
20482;SDS011;10400;53.198;6.592;2022-08-01T14:00:48;5.32;;;1.30;;
20482;SDS011;10400;53.198;6.592;2022-08-01T14:03:14;4.63;;;1.23;;
20482;SDS011;10400;53.198;6.592;2022-08-01T14:05:41;4.93;;;0.95;;
20482;SDS011;10400;53.198;6.592;2022-08-01T14:08:07;6.20;;;1.23;;
20482;SDS011;10400;53.198;6.592;2022-08-01T14:10:33;6.60;;;1.45;;
20482;SDS011;10400;53.198;6.592;2022-08-01T14:12:59;8.68;;;1.48;;
20482;SDS011;10400;53.198;6.592;2022-08-01T14:15:25;5.88;;;1.25;;
20482;SDS011;10400;53.198;6.592;2022-08-01T14:17:51;5.05;;;1.35;;
20482;SDS011;10400;53.198;6.592;2022-08-01T14:20:17;4.72;;;1.13;;
20482;SDS011;10400;53.198;6.592;2022-08-01T14:22:45;9.20;;;1.58;;
20482;SDS011;10400;53.198;6.592;2022-08-01T14:25:11;6.28;;;1.13;;
20482;SDS011;10400;53.198;6.592;2022-08-01T14:27:37;5.57;;;1.30;;
20482;SDS011;10400;53.198;6.592;2022-08-01T14:30:04;5.97;;;1.65;;
20482;SDS011;10400;53.198;6.592;2022-08-01T14:32:31;10.25;;;1.77;;
20482;SDS011;10400;53.198;6.592;2022-08-01T14:34:58;9.45;;;1.40;;
20482;SDS011;10400;53.198;6.592;2022-08-01T14:37:24;6.05;;;1.38;;
20482;SDS011;10400;53.198;6.592;2022-08-01T14:39:50;9.68;;;1.63;;
20482;SDS011;10400;53.198;6.592;2022-08-01T14:42:15;7.22;;;1.45;;
20482;SDS011;10400;53.198;6.592;2022-08-01T14:44:41;7.78;;;1.52;;
20482;SDS011;10400;53.198;6.592;2022-08-01T14:47:07;4.35;;;1.10;;
20482;SDS011;10400;53.198;6.592;2022-08-01T14:49:33;6.18;;;1.23;;
20482;SDS011;10400;53.198;6.592;2022-08-01T14:51:58;6.45;;;1.88;;
20482;SDS011;10400;53.198;6.592;2022-08-01T14:54:24;6.18;;;1.08;;
20482;SDS011;10400;53.198;6.592;2022-08-01T14:56:50;7.30;;;1.45;;
20482;SDS011;10400;53.198;6.592;2022-08-01T14:59:17;4.13;;;1.30;;
20482;SDS011;10400;53.198;6.592;2022-08-01T15:01:43;6.47;;;1.38;;
20482;SDS011;10400;53.198;6.592;2022-08-01T15:04:09;6.30;;;1.23;;
20482;SDS011;10400;53.198;6.592;2022-08-01T15:06:34;5.72;;;1.27;;
20482;SDS011;10400;53.198;6.592;2022-08-01T15:09:00;6.95;;;1.38;;
20482;SDS011;10400;53.198;6.592;2022-08-01T15:11:25;6.25;;;1.63;;
20482;SDS011;10400;53.198;6.592;2022-08-01T15:13:51;6.40;;;1.63;;
20482;SDS011;10400;53.198;6.592;2022-08-01T15:16:36;8.70;;;1.40;;
20482;SDS011;10400;53.198;6.592;2022-08-01T15:19:02;8.63;;;1.33;;
20482;SDS011;10400;53.198;6.592;2022-08-01T15:21:27;3.97;;;1.38;;
20482;SDS011;10400;53.198;6.592;2022-08-01T15:23:53;11.55;;;1.55;;
20482;SDS011;10400;53.198;6.592;2022-08-01T15:26:19;4.78;;;1.30;;
20482;SDS011;10400;53.198;6.592;2022-08-01T15:28:44;6.70;;;1.45;;
20482;SDS011;10400;53.198;6.592;2022-08-01T15:31:10;5.85;;;1.40;;
20482;SDS011;10400;53.198;6.592;2022-08-01T15:33:35;4.82;;;1.33;;
20482;SDS011;10400;53.198;6.592;2022-08-01T15:36:01;5.75;;;1.48;;
20482;SDS011;10400;53.198;6.592;2022-08-01T15:38:27;9.10;;;1.50;;